sensor_id;sensor_type;location;lat;lon;timestamp;P1;durP1;ratioP1;P2;durP2;ratioP2
84021;SDS011;74108;48.636;9.492;2024-01-16T00:01:09;3.85;;;1.95;;
84021;SDS011;74108;48.636;9.492;2024-01-16T00:03:34;5.03;;;2.20;;
84021;SDS011;74108;48.636;9.492;2024-01-16T00:06:00;3.67;;;1.95;;
84021;SDS011;74108;48.636;9.492;2024-01-16T00:08:26;6.82;;;2.75;;
84021;SDS011;74108;48.636;9.492;2024-01-16T00:10:52;7.28;;;2.63;;
84021;SDS011;74108;48.636;9.492;2024-01-16T00:13:18;4.20;;;2.42;;
84021;SDS011;74108;48.636;9.492;2024-01-16T00:15:43;4.57;;;2.30;;
84021;SDS011;74108;48.636;9.492;2024-01-16T00:18:09;6.30;;;2.33;;
84021;SDS011;74108;48.636;9.492;2024-01-16T00:20:34;4.07;;;2.22;;
84021;SDS011;74108;48.636;9.492;2024-01-16T00:23:00;6.57;;;2.60;;
84021;SDS011;74108;48.636;9.492;2024-01-16T00:25:26;5.47;;;2.05;;
84021;SDS011;74108;48.636;9.492;2024-01-16T00:27:51;4.57;;;2.28;;
84021;SDS011;74108;48.636;9.492;2024-01-16T00:30:17;5.63;;;2.60;;
84021;SDS011;74108;48.636;9.492;2024-01-16T00:32:43;4.63;;;2.20;;
84021;SDS011;74108;48.636;9.492;2024-01-16T00:35:08;5.10;;;2.22;;
84021;SDS011;74108;48.636;9.492;2024-01-16T00:37:35;7.25;;;2.53;;
84021;SDS011;74108;48.636;9.492;2024-01-16T00:40:02;5.00;;;2.53;;
84021;SDS011;74108;48.636;9.492;2024-01-16T00:42:29;5.97;;;2.00;;
84021;SDS011;74108;48.636;9.492;2024-01-16T00:44:55;4.82;;;2.17;;
84021;SDS011;74108;48.636;9.492;2024-01-16T00:47:22;3.45;;;2.00;;
84021;SDS011;74108;48.636;9.492;2024-01-16T00:49:47;4.07;;;2.10;;
84021;SDS011;74108;48.636;9.492;2024-01-16T00:52:13;5.30;;;2.28;;
84021;SDS011;74108;48.636;9.492;2024-01-16T00:54:38;7.15;;;2.55;;
84021;SDS011;74108;48.636;9.492;2024-01-16T00:57:04;5.97;;;2.53;;
84021;SDS011;74108;48.636;9.492;2024-01-16T00:59:30;9.65;;;2.17;;
84021;SDS011;74108;48.636;9.492;2024-01-16T01:01:55;5.95;;;2.40;;
84021;SDS011;74108;48.636;9.492;2024-01-16T01:04:21;4.18;;;2.15;;
84021;SDS011;74108;48.636;9.492;2024-01-16T01:06:46;7.50;;;2.35;;
84021;SDS011;74108;48.636;9.492;2024-01-16T01:09:13;7.35;;;2.22;;
84021;SDS011;74108;48.636;9.492;2024-01-16T01:11:38;5.47;;;2.42;;
84021;SDS011;74108;48.636;9.492;2024-01-16T01:14:04;3.95;;;2.22;;
84021;SDS011;74108;48.636;9.492;2024-01-16T01:16:29;5.47;;;2.20;;
84021;SDS011;74108;48.636;9.492;2024-01-16T01:18:55;5.68;;;2.38;;
84021;SDS011;74108;48.636;9.492;2024-01-16T01:21:20;4.40;;;2.08;;
84021;SDS011;74108;48.636;9.492;2024-01-16T01:23:46;5.68;;;2.35;;
84021;SDS011;74108;48.636;9.492;2024-01-16T01:26:11;4.97;;;2.30;;
84021;SDS011;74108;48.636;9.492;2024-01-16T01:28:39;6.40;;;2.40;;
84021;SDS011;74108;48.636;9.492;2024-01-16T01:31:05;4.28;;;2.03;;
84021;SDS011;74108;48.636;9.492;2024-01-16T01:33:33;4.32;;;2.30;;
84021;SDS011;74108;48.636;9.492;2024-01-16T01:35:58;6.30;;;2.67;;
84021;SDS011;74108;48.636;9.492;2024-01-16T01:38:23;3.92;;;2.38;;
84021;SDS011;74108;48.636;9.492;2024-01-16T01:40:50;4.47;;;2.55;;
84021;SDS011;74108;48.636;9.492;2024-01-16T01:43:20;4.32;;;2.30;;
84021;SDS011;74108;48.636;9.492;2024-01-16T01:48:34;5.57;;;2.17;;
84021;SDS011;74108;48.636;9.492;2024-01-16T01:51:02;4.38;;;2.33;;
84021;SDS011;74108;48.636;9.492;2024-01-16T01:53:28;5.50;;;2.72;;
84021;SDS011;74108;48.636;9.492;2024-01-16T01:55:57;4.28;;;2.47;;
84021;SDS011;74108;48.636;9.492;2024-01-16T01:58:24;4.72;;;2.40;;
84021;SDS011;74108;48.636;9.492;2024-01-16T02:00:49;7.55;;;2.30;;
84021;SDS011;74108;48.636;9.492;2024-01-16T02:03:15;5.35;;;2.53;;
84021;SDS011;74108;48.636;9.492;2024-01-16T02:05:40;5.07;;;2.42;;
84021;SDS011;74108;48.636;9.492;2024-01-16T02:08:07;5.43;;;2.13;;
84021;SDS011;74108;48.636;9.492;2024-01-16T02:10:34;5.68;;;2.10;;
84021;SDS011;74108;48.636;9.492;2024-01-16T02:13:03;4.78;;;2.42;;
84021;SDS011;74108;48.636;9.492;2024-01-16T02:15:28;6.20;;;2.25;;
84021;SDS011;74108;48.636;9.492;2024-01-16T02:17:54;7.25;;;2.92;;
84021;SDS011;74108;48.636;9.492;2024-01-16T02:20:19;3.70;;;2.13;;
84021;SDS011;74108;48.636;9.492;2024-01-16T02:22:45;4.28;;;2.38;;
84021;SDS011;74108;48.636;9.492;2024-01-16T02:25:13;4.25;;;2.00;;
84021;SDS011;74108;48.636;9.492;2024-01-16T02:27:39;5.53;;;2.30;;
84021;SDS011;74108;48.636;9.492;2024-01-16T02:30:04;4.15;;;2.13;;
84021;SDS011;74108;48.636;9.492;2024-01-16T02:32:31;5.00;;;2.30;;
84021;SDS011;74108;48.636;9.492;2024-01-16T02:34:57;3.20;;;2.00;;
84021;SDS011;74108;48.636;9.492;2024-01-16T02:37:23;3.67;;;2.30;;
84021;SDS011;74108;48.636;9.492;2024-01-16T02:39:49;4.70;;;2.28;;
84021;SDS011;74108;48.636;9.492;2024-01-16T02:42:14;3.80;;;2.20;;
84021;SDS011;74108;48.636;9.492;2024-01-16T02:44:43;5.65;;;2.53;;
84021;SDS011;74108;48.636;9.492;2024-01-16T02:47:08;4.00;;;2.00;;
84021;SDS011;74108;48.636;9.492;2024-01-16T02:49:34;4.80;;;2.10;;
84021;SDS011;74108;48.636;9.492;2024-01-16T02:52:01;3.83;;;2.38;;
84021;SDS011;74108;48.636;9.492;2024-01-16T02:54:27;4.45;;;2.30;;
84021;SDS011;74108;48.636;9.492;2024-01-16T02:56:52;6.15;;;2.35;;
84021;SDS011;74108;48.636;9.492;2024-01-16T02:59:18;5.22;;;2.22;;
84021;SDS011;74108;48.636;9.492;2024-01-16T03:01:43;5.30;;;2.47;;
84021;SDS011;74108;48.636;9.492;2024-01-16T03:04:08;5.13;;;2.60;;
84021;SDS011;74108;48.636;9.492;2024-01-16T03:06:34;5.63;;;2.38;;
84021;SDS011;74108;48.636;9.492;2024-01-16T03:08:59;3.88;;;2.00;;
84021;SDS011;74108;48.636;9.492;2024-01-16T03:11:25;3.47;;;1.80;;
84021;SDS011;74108;48.636;9.492;2024-01-16T03:13:51;6.70;;;2.22;;
84021;SDS011;74108;48.636;9.492;2024-01-16T03:16:18;4.93;;;2.30;;
84021;SDS011;74108;48.636;9.492;2024-01-16T03:18:46;4.00;;;2.20;;
84021;SDS011;74108;48.636;9.492;2024-01-16T03:21:12;5.45;;;2.45;;
84021;SDS011;74108;48.636;9.492;2024-01-16T03:23:38;4.68;;;2.20;;
84021;SDS011;74108;48.636;9.492;2024-01-16T03:26:04;4.80;;;2.10;;
84021;SDS011;74108;48.636;9.492;2024-01-16T03:28:29;4.80;;;2.30;;
84021;SDS011;74108;48.636;9.492;2024-01-16T03:30:54;7.45;;;2.38;;
84021;SDS011;74108;48.636;9.492;2024-01-16T03:33:20;4.70;;;2.30;;
84021;SDS011;74108;48.636;9.492;2024-01-16T03:35:45;4.70;;;2.50;;
84021;SDS011;74108;48.636;9.492;2024-01-16T03:38:12;5.97;;;2.53;;
84021;SDS011;74108;48.636;9.492;2024-01-16T03:40:38;5.30;;;2.30;;
84021;SDS011;74108;48.636;9.492;2024-01-16T03:43:03;4.95;;;2.20;;
84021;SDS011;74108;48.636;9.492;2024-01-16T03:45:30;4.82;;;2.00;;
84021;SDS011;74108;48.636;9.492;2024-01-16T03:47:56;5.65;;;2.20;;
84021;SDS011;74108;48.636;9.492;2024-01-16T03:50:21;5.05;;;2.30;;
84021;SDS011;74108;48.636;9.492;2024-01-16T03:52:46;5.47;;;2.17;;
84021;SDS011;74108;48.636;9.492;2024-01-16T03:55:12;5.93;;;2.03;;
84021;SDS011;74108;48.636;9.492;2024-01-16T03:57:37;4.47;;;2.20;;
84021;SDS011;74108;48.636;9.492;2024-01-16T04:00:03;6.82;;;2.47;;
84021;SDS011;74108;48.636;9.492;2024-01-16T04:02:30;5.15;;;2.20;;
84021;SDS011;74108;48.636;9.492;2024-01-16T04:04:56;4.15;;;1.90;;
84021;SDS011;74108;48.636;9.492;2024-01-16T04:07:25;3.92;;;2.08;;
84021;SDS011;74108;48.636;9.492;2024-01-16T04:09:53;4.93;;;2.28;;
84021;SDS011;74108;48.636;9.492;2024-01-16T04:15:40;5.25;;;2.15;;
84021;SDS011;74108;48.636;9.492;2024-01-16T04:18:06;6.60;;;2.35;;
84021;SDS011;74108;48.636;9.492;2024-01-16T04:20:31;4.78;;;2.10;;
84021;SDS011;74108;48.636;9.492;2024-01-16T04:22:57;6.13;;;2.53;;
84021;SDS011;74108;48.636;9.492;2024-01-16T04:25:23;3.80;;;2.00;;
84021;SDS011;74108;48.636;9.492;2024-01-16T04:27:48;7.15;;;2.50;;
84021;SDS011;74108;48.636;9.492;2024-01-16T04:30:14;5.55;;;1.98;;
84021;SDS011;74108;48.636;9.492;2024-01-16T04:32:39;2.92;;;1.83;;
84021;SDS011;74108;48.636;9.492;2024-01-16T04:35:05;5.82;;;2.38;;
84021;SDS011;74108;48.636;9.492;2024-01-16T04:37:30;4.55;;;2.25;;
84021;SDS011;74108;48.636;9.492;2024-01-16T04:39:56;4.78;;;2.00;;
84021;SDS011;74108;48.636;9.492;2024-01-16T04:42:23;6.43;;;2.05;;
84021;SDS011;74108;48.636;9.492;2024-01-16T04:44:48;4.07;;;1.92;;
84021;SDS011;74108;48.636;9.492;2024-01-16T04:47:14;5.25;;;2.10;;
84021;SDS011;74108;48.636;9.492;2024-01-16T04:49:41;4.32;;;2.13;;
84021;SDS011;74108;48.636;9.492;2024-01-16T04:52:08;4.30;;;2.00;;
84021;SDS011;74108;48.636;9.492;2024-01-16T04:54:33;6.35;;;1.92;;
84021;SDS011;74108;48.636;9.492;2024-01-16T04:56:59;4.40;;;1.92;;
84021;SDS011;74108;48.636;9.492;2024-01-16T04:59:24;6.05;;;2.28;;
84021;SDS011;74108;48.636;9.492;2024-01-16T05:01:50;5.38;;;2.42;;
84021;SDS011;74108;48.636;9.492;2024-01-16T05:04:16;5.43;;;2.25;;
84021;SDS011;74108;48.636;9.492;2024-01-16T05:06:41;4.97;;;2.80;;
84021;SDS011;74108;48.636;9.492;2024-01-16T05:09:07;5.85;;;2.40;;
84021;SDS011;74108;48.636;9.492;2024-01-16T05:11:34;9.88;;;3.20;;
84021;SDS011;74108;48.636;9.492;2024-01-16T05:13:59;6.25;;;2.60;;
84021;SDS011;74108;48.636;9.492;2024-01-16T05:16:25;7.30;;;3.25;;
84021;SDS011;74108;48.636;9.492;2024-01-16T05:18:50;4.15;;;1.90;;
84021;SDS011;74108;48.636;9.492;2024-01-16T05:21:16;6.97;;;2.00;;
84021;SDS011;74108;48.636;9.492;2024-01-16T05:23:43;4.88;;;2.17;;
84021;SDS011;74108;48.636;9.492;2024-01-16T05:26:08;7.43;;;2.30;;
84021;SDS011;74108;48.636;9.492;2024-01-16T05:28:33;3.47;;;1.98;;
84021;SDS011;74108;48.636;9.492;2024-01-16T05:30:59;5.20;;;2.10;;
84021;SDS011;74108;48.636;9.492;2024-01-16T05:33:25;3.80;;;1.95;;
84021;SDS011;74108;48.636;9.492;2024-01-16T05:35:50;4.15;;;2.08;;
84021;SDS011;74108;48.636;9.492;2024-01-16T05:38:15;4.40;;;2.13;;
84021;SDS011;74108;48.636;9.492;2024-01-16T05:40:41;5.20;;;2.00;;
84021;SDS011;74108;48.636;9.492;2024-01-16T05:43:07;3.45;;;1.80;;
84021;SDS011;74108;48.636;9.492;2024-01-16T05:45:32;4.70;;;2.03;;
84021;SDS011;74108;48.636;9.492;2024-01-16T05:47:57;4.45;;;2.25;;
84021;SDS011;74108;48.636;9.492;2024-01-16T05:50:23;4.53;;;2.05;;
84021;SDS011;74108;48.636;9.492;2024-01-16T05:52:48;4.30;;;2.20;;
84021;SDS011;74108;48.636;9.492;2024-01-16T05:55:14;5.35;;;2.17;;
84021;SDS011;74108;48.636;9.492;2024-01-16T05:57:39;4.72;;;2.00;;
84021;SDS011;74108;48.636;9.492;2024-01-16T06:00:05;4.68;;;2.08;;
84021;SDS011;74108;48.636;9.492;2024-01-16T06:02:37;4.53;;;2.15;;
84021;SDS011;74108;48.636;9.492;2024-01-16T06:05:02;4.22;;;2.05;;
84021;SDS011;74108;48.636;9.492;2024-01-16T06:07:28;3.92;;;2.30;;
84021;SDS011;74108;48.636;9.492;2024-01-16T06:09:53;6.35;;;2.63;;
84021;SDS011;74108;48.636;9.492;2024-01-16T06:12:19;6.28;;;2.70;;
84021;SDS011;74108;48.636;9.492;2024-01-16T06:14:45;6.88;;;2.85;;
84021;SDS011;74108;48.636;9.492;2024-01-16T06:17:10;5.15;;;2.60;;
84021;SDS011;74108;48.636;9.492;2024-01-16T06:19:36;7.90;;;2.97;;
84021;SDS011;74108;48.636;9.492;2024-01-16T06:22:01;6.57;;;2.80;;
84021;SDS011;74108;48.636;9.492;2024-01-16T06:24:27;7.80;;;2.47;;
84021;SDS011;74108;48.636;9.492;2024-01-16T06:26:52;4.88;;;2.33;;
84021;SDS011;74108;48.636;9.492;2024-01-16T06:29:18;5.82;;;2.50;;
84021;SDS011;74108;48.636;9.492;2024-01-16T06:31:43;5.25;;;2.33;;
84021;SDS011;74108;48.636;9.492;2024-01-16T06:34:08;4.50;;;2.25;;
84021;SDS011;74108;48.636;9.492;2024-01-16T06:36:34;5.40;;;1.98;;
84021;SDS011;74108;48.636;9.492;2024-01-16T06:38:59;4.28;;;1.88;;
84021;SDS011;74108;48.636;9.492;2024-01-16T06:41:25;3.95;;;2.20;;
84021;SDS011;74108;48.636;9.492;2024-01-16T06:43:50;7.88;;;2.30;;
84021;SDS011;74108;48.636;9.492;2024-01-16T06:46:16;5.20;;;2.33;;
84021;SDS011;74108;48.636;9.492;2024-01-16T06:48:42;6.70;;;2.47;;
84021;SDS011;74108;48.636;9.492;2024-01-16T06:51:08;6.35;;;2.40;;
84021;SDS011;74108;48.636;9.492;2024-01-16T06:53:35;4.95;;;2.25;;
84021;SDS011;74108;48.636;9.492;2024-01-16T06:56:01;4.95;;;2.30;;
84021;SDS011;74108;48.636;9.492;2024-01-16T06:58:26;3.88;;;2.05;;
84021;SDS011;74108;48.636;9.492;2024-01-16T07:00:51;6.10;;;2.58;;
84021;SDS011;74108;48.636;9.492;2024-01-16T07:03:17;3.80;;;2.20;;
84021;SDS011;74108;48.636;9.492;2024-01-16T07:05:43;5.43;;;1.98;;
84021;SDS011;74108;48.636;9.492;2024-01-16T07:08:09;5.25;;;2.22;;
84021;SDS011;74108;48.636;9.492;2024-01-16T07:10:35;8.48;;;2.60;;
84021;SDS011;74108;48.636;9.492;2024-01-16T07:13:01;7.20;;;2.75;;
84021;SDS011;74108;48.636;9.492;2024-01-16T07:15:26;8.35;;;2.70;;
84021;SDS011;74108;48.636;9.492;2024-01-16T07:17:52;5.85;;;2.80;;
84021;SDS011;74108;48.636;9.492;2024-01-16T07:20:18;7.68;;;3.28;;
84021;SDS011;74108;48.636;9.492;2024-01-16T07:22:43;6.28;;;3.22;;
84021;SDS011;74108;48.636;9.492;2024-01-16T07:25:08;7.13;;;2.70;;
84021;SDS011;74108;48.636;9.492;2024-01-16T07:27:34;6.68;;;2.58;;
84021;SDS011;74108;48.636;9.492;2024-01-16T07:30:00;5.90;;;2.50;;
84021;SDS011;74108;48.636;9.492;2024-01-16T07:32:26;6.30;;;2.97;;
84021;SDS011;74108;48.636;9.492;2024-01-16T07:34:52;10.05;;;3.00;;
84021;SDS011;74108;48.636;9.492;2024-01-16T07:37:18;7.93;;;2.75;;
84021;SDS011;74108;48.636;9.492;2024-01-16T07:39:43;5.18;;;2.28;;
84021;SDS011;74108;48.636;9.492;2024-01-16T07:42:09;3.88;;;2.30;;
84021;SDS011;74108;48.636;9.492;2024-01-16T07:44:35;6.55;;;2.45;;
84021;SDS011;74108;48.636;9.492;2024-01-16T07:47:01;6.03;;;2.35;;
84021;SDS011;74108;48.636;9.492;2024-01-16T07:49:26;5.28;;;2.55;;
84021;SDS011;74108;48.636;9.492;2024-01-16T07:51:52;5.85;;;2.60;;
84021;SDS011;74108;48.636;9.492;2024-01-16T07:54:17;4.10;;;2.20;;
84021;SDS011;74108;48.636;9.492;2024-01-16T07:56:42;5.13;;;2.35;;
84021;SDS011;74108;48.636;9.492;2024-01-16T07:59:08;5.30;;;2.13;;
84021;SDS011;74108;48.636;9.492;2024-01-16T08:01:33;4.90;;;2.38;;
84021;SDS011;74108;48.636;9.492;2024-01-16T08:03:58;5.35;;;2.35;;
84021;SDS011;74108;48.636;9.492;2024-01-16T08:06:24;4.43;;;2.22;;
84021;SDS011;74108;48.636;9.492;2024-01-16T08:08:49;5.00;;;2.40;;
84021;SDS011;74108;48.636;9.492;2024-01-16T08:11:15;8.55;;;2.53;;
84021;SDS011;74108;48.636;9.492;2024-01-16T08:13:42;6.40;;;2.50;;
84021;SDS011;74108;48.636;9.492;2024-01-16T08:16:08;4.65;;;2.58;;
84021;SDS011;74108;48.636;9.492;2024-01-16T08:18:33;6.75;;;2.53;;
84021;SDS011;74108;48.636;9.492;2024-01-16T08:20:59;7.78;;;2.58;;
84021;SDS011;74108;48.636;9.492;2024-01-16T08:23:24;10.40;;;2.65;;
84021;SDS011;74108;48.636;9.492;2024-01-16T08:25:50;8.15;;;3.95;;
84021;SDS011;74108;48.636;9.492;2024-01-16T08:28:16;6.57;;;2.40;;
84021;SDS011;74108;48.636;9.492;2024-01-16T08:30:42;8.95;;;2.97;;
84021;SDS011;74108;48.636;9.492;2024-01-16T08:33:07;7.10;;;2.90;;
84021;SDS011;74108;48.636;9.492;2024-01-16T08:35:33;20.63;;;5.28;;
84021;SDS011;74108;48.636;9.492;2024-01-16T08:37:58;6.68;;;3.13;;
84021;SDS011;74108;48.636;9.492;2024-01-16T08:40:24;7.93;;;3.05;;
84021;SDS011;74108;48.636;9.492;2024-01-16T08:42:50;8.43;;;2.83;;
84021;SDS011;74108;48.636;9.492;2024-01-16T08:45:20;9.02;;;3.25;;
84021;SDS011;74108;48.636;9.492;2024-01-16T08:47:48;7.65;;;3.17;;
84021;SDS011;74108;48.636;9.492;2024-01-16T08:50:15;6.72;;;3.30;;
84021;SDS011;74108;48.636;9.492;2024-01-16T08:52:41;7.07;;;2.90;;
84021;SDS011;74108;48.636;9.492;2024-01-16T08:55:07;7.85;;;3.40;;
84021;SDS011;74108;48.636;9.492;2024-01-16T08:57:34;8.77;;;3.00;;
84021;SDS011;74108;48.636;9.492;2024-01-16T08:59:59;6.55;;;3.22;;
84021;SDS011;74108;48.636;9.492;2024-01-16T09:02:25;6.85;;;3.40;;
84021;SDS011;74108;48.636;9.492;2024-01-16T09:07:19;7.57;;;3.17;;
84021;SDS011;74108;48.636;9.492;2024-01-16T09:09:44;6.10;;;3.30;;
84021;SDS011;74108;48.636;9.492;2024-01-16T09:12:09;7.25;;;3.47;;
84021;SDS011;74108;48.636;9.492;2024-01-16T09:14:35;9.57;;;3.58;;
84021;SDS011;74108;48.636;9.492;2024-01-16T09:17:00;11.27;;;3.90;;
84021;SDS011;74108;48.636;9.492;2024-01-16T09:19:26;9.43;;;4.10;;
84021;SDS011;74108;48.636;9.492;2024-01-16T09:21:51;13.45;;;5.15;;
84021;SDS011;74108;48.636;9.492;2024-01-16T09:24:17;15.68;;;5.45;;
84021;SDS011;74108;48.636;9.492;2024-01-16T09:26:44;11.10;;;5.25;;
84021;SDS011;74108;48.636;9.492;2024-01-16T09:29:10;7.93;;;4.05;;
84021;SDS011;74108;48.636;9.492;2024-01-16T09:31:36;7.10;;;3.33;;
84021;SDS011;74108;48.636;9.492;2024-01-16T09:34:02;8.23;;;3.55;;
84021;SDS011;74108;48.636;9.492;2024-01-16T09:36:28;9.73;;;4.55;;
84021;SDS011;74108;48.636;9.492;2024-01-16T09:38:54;14.52;;;4.93;;
84021;SDS011;74108;48.636;9.492;2024-01-16T09:41:20;13.35;;;5.85;;
84021;SDS011;74108;48.636;9.492;2024-01-16T09:43:47;16.00;;;6.15;;
84021;SDS011;74108;48.636;9.492;2024-01-16T09:46:13;19.65;;;7.88;;
84021;SDS011;74108;48.636;9.492;2024-01-16T09:48:40;17.30;;;7.72;;
84021;SDS011;74108;48.636;9.492;2024-01-16T09:51:07;20.58;;;8.13;;
84021;SDS011;74108;48.636;9.492;2024-01-16T09:53:32;16.90;;;7.10;;
84021;SDS011;74108;48.636;9.492;2024-01-16T09:55:59;18.17;;;6.82;;
84021;SDS011;74108;48.636;9.492;2024-01-16T09:58:27;14.32;;;6.03;;
84021;SDS011;74108;48.636;9.492;2024-01-16T10:00:58;10.82;;;5.38;;
84021;SDS011;74108;48.636;9.492;2024-01-16T10:03:24;14.25;;;5.50;;
84021;SDS011;74108;48.636;9.492;2024-01-16T10:05:51;11.27;;;5.32;;
84021;SDS011;74108;48.636;9.492;2024-01-16T10:08:17;10.95;;;5.13;;
84021;SDS011;74108;48.636;9.492;2024-01-16T10:10:46;11.38;;;5.22;;
84021;SDS011;74108;48.636;9.492;2024-01-16T10:13:12;11.40;;;4.55;;
84021;SDS011;74108;48.636;9.492;2024-01-16T10:15:39;12.60;;;5.10;;
84021;SDS011;74108;48.636;9.492;2024-01-16T10:18:04;11.00;;;4.90;;
84021;SDS011;74108;48.636;9.492;2024-01-16T10:20:34;10.30;;;5.00;;
84021;SDS011;74108;48.636;9.492;2024-01-16T10:23:01;8.88;;;4.72;;
84021;SDS011;74108;48.636;9.492;2024-01-16T10:25:28;10.82;;;4.97;;
84021;SDS011;74108;48.636;9.492;2024-01-16T10:28:03;10.25;;;4.70;;
84021;SDS011;74108;48.636;9.492;2024-01-16T10:30:32;11.18;;;4.80;;
84021;SDS011;74108;48.636;9.492;2024-01-16T10:33:01;11.05;;;4.57;;
84021;SDS011;74108;48.636;9.492;2024-01-16T10:38:03;14.17;;;4.90;;
84021;SDS011;74108;48.636;9.492;2024-01-16T10:40:29;13.55;;;4.95;;
84021;SDS011;74108;48.636;9.492;2024-01-16T10:43:02;9.02;;;4.45;;
84021;SDS011;74108;48.636;9.492;2024-01-16T10:45:30;13.07;;;4.93;;
84021;SDS011;74108;48.636;9.492;2024-01-16T10:48:02;8.88;;;4.45;;
84021;SDS011;74108;48.636;9.492;2024-01-16T10:50:30;10.18;;;4.45;;
84021;SDS011;74108;48.636;9.492;2024-01-16T10:52:56;8.73;;;4.35;;
84021;SDS011;74108;48.636;9.492;2024-01-16T10:55:24;8.98;;;4.10;;
84021;SDS011;74108;48.636;9.492;2024-01-16T10:57:53;7.40;;;4.10;;
84021;SDS011;74108;48.636;9.492;2024-01-16T11:00:23;9.18;;;4.28;;
84021;SDS011;74108;48.636;9.492;2024-01-16T11:03:06;8.57;;;4.20;;
84021;SDS011;74108;48.636;9.492;2024-01-16T11:05:34;7.80;;;3.30;;
84021;SDS011;74108;48.636;9.492;2024-01-16T11:08:02;7.50;;;3.60;;
84021;SDS011;74108;48.636;9.492;2024-01-16T11:10:31;9.35;;;4.30;;
84021;SDS011;74108;48.636;9.492;2024-01-16T11:13:00;7.80;;;3.97;;
84021;SDS011;74108;48.636;9.492;2024-01-16T11:15:27;9.82;;;4.32;;
84021;SDS011;74108;48.636;9.492;2024-01-16T11:17:56;9.18;;;4.13;;
84021;SDS011;74108;48.636;9.492;2024-01-16T11:20:24;8.32;;;4.13;;
84021;SDS011;74108;48.636;9.492;2024-01-16T11:22:52;8.70;;;3.72;;
84021;SDS011;74108;48.636;9.492;2024-01-16T11:25:24;7.40;;;3.72;;
84021;SDS011;74108;48.636;9.492;2024-01-16T11:27:56;9.18;;;4.88;;
84021;SDS011;74108;48.636;9.492;2024-01-16T11:30:39;6.65;;;3.60;;
84021;SDS011;74108;48.636;9.492;2024-01-16T11:33:06;8.35;;;4.00;;
84021;SDS011;74108;48.636;9.492;2024-01-16T11:35:37;8.45;;;4.28;;
84021;SDS011;74108;48.636;9.492;2024-01-16T11:38:26;10.10;;;3.90;;
84021;SDS011;74108;48.636;9.492;2024-01-16T11:40:55;7.28;;;3.65;;
84021;SDS011;74108;48.636;9.492;2024-01-16T11:45:57;6.72;;;3.10;;
84021;SDS011;74108;48.636;9.492;2024-01-16T11:48:23;6.18;;;3.40;;
84021;SDS011;74108;48.636;9.492;2024-01-16T11:50:50;6.38;;;2.78;;
84021;SDS011;74108;48.636;9.492;2024-01-16T11:53:35;5.57;;;2.15;;
84021;SDS011;74108;48.636;9.492;2024-01-16T12:02:05;5.30;;;2.60;;
84021;SDS011;74108;48.636;9.492;2024-01-16T12:04:57;7.68;;;3.20;;
84021;SDS011;74108;48.636;9.492;2024-01-16T12:07:28;5.70;;;2.88;;
84021;SDS011;74108;48.636;9.492;2024-01-16T12:09:58;5.00;;;2.80;;
84021;SDS011;74108;48.636;9.492;2024-01-16T12:12:24;7.80;;;3.00;;
84021;SDS011;74108;48.636;9.492;2024-01-16T12:14:52;7.35;;;2.97;;
84021;SDS011;74108;48.636;9.492;2024-01-16T12:17:20;6.57;;;3.20;;
84021;SDS011;74108;48.636;9.492;2024-01-16T12:19:46;6.30;;;3.42;;
84021;SDS011;74108;48.636;9.492;2024-01-16T12:22:14;5.13;;;2.58;;
84021;SDS011;74108;48.636;9.492;2024-01-16T12:24:41;5.75;;;2.35;;
84021;SDS011;74108;48.636;9.492;2024-01-16T12:27:07;7.10;;;2.17;;
84021;SDS011;74108;48.636;9.492;2024-01-16T12:29:33;5.00;;;2.80;;
84021;SDS011;74108;48.636;9.492;2024-01-16T12:32:32;3.53;;;2.20;;
84021;SDS011;74108;48.636;9.492;2024-01-16T12:34:53;5.15;;;2.28;;
84021;SDS011;74108;48.636;9.492;2024-01-16T12:37:19;5.07;;;2.17;;
84021;SDS011;74108;48.636;9.492;2024-01-16T12:39:45;6.20;;;2.28;;
84021;SDS011;74108;48.636;9.492;2024-01-16T12:42:10;6.22;;;2.40;;
84021;SDS011;74108;48.636;9.492;2024-01-16T12:44:36;6.25;;;2.60;;
84021;SDS011;74108;48.636;9.492;2024-01-16T12:47:02;4.60;;;2.63;;
84021;SDS011;74108;48.636;9.492;2024-01-16T12:49:28;7.75;;;2.95;;
84021;SDS011;74108;48.636;9.492;2024-01-16T12:55:00;6.38;;;2.80;;
84021;SDS011;74108;48.636;9.492;2024-01-16T12:57:26;4.50;;;2.90;;
84021;SDS011;74108;48.636;9.492;2024-01-16T12:59:51;4.88;;;2.50;;
84021;SDS011;74108;48.636;9.492;2024-01-16T13:02:21;4.22;;;2.53;;
84021;SDS011;74108;48.636;9.492;2024-01-16T13:04:48;8.05;;;2.55;;
84021;SDS011;74108;48.636;9.492;2024-01-16T13:07:24;4.40;;;2.50;;
84021;SDS011;74108;48.636;9.492;2024-01-16T13:10:08;5.32;;;2.38;;
84021;SDS011;74108;48.636;9.492;2024-01-16T13:12:43;5.32;;;2.05;;
84021;SDS011;74108;48.636;9.492;2024-01-16T13:15:09;5.78;;;2.40;;
84021;SDS011;74108;48.636;9.492;2024-01-16T13:17:36;6.47;;;2.40;;
84021;SDS011;74108;48.636;9.492;2024-01-16T13:20:02;6.80;;;2.40;;
84021;SDS011;74108;48.636;9.492;2024-01-16T13:22:28;7.30;;;2.20;;
84021;SDS011;74108;48.636;9.492;2024-01-16T13:24:54;6.78;;;2.22;;
84021;SDS011;74108;48.636;9.492;2024-01-16T13:27:20;4.68;;;2.30;;
84021;SDS011;74108;48.636;9.492;2024-01-16T13:29:46;6.07;;;2.10;;
84021;SDS011;74108;48.636;9.492;2024-01-16T13:32:11;5.47;;;2.80;;
84021;SDS011;74108;48.636;9.492;2024-01-16T13:34:38;4.78;;;2.40;;
84021;SDS011;74108;48.636;9.492;2024-01-16T13:37:03;4.70;;;2.30;;
84021;SDS011;74108;48.636;9.492;2024-01-16T13:39:29;5.00;;;2.40;;
84021;SDS011;74108;48.636;9.492;2024-01-16T13:41:59;4.40;;;2.28;;
84021;SDS011;74108;48.636;9.492;2024-01-16T13:44:25;3.63;;;1.92;;
84021;SDS011;74108;48.636;9.492;2024-01-16T13:46:50;6.57;;;2.40;;
84021;SDS011;74108;48.636;9.492;2024-01-16T13:49:15;5.75;;;2.33;;
84021;SDS011;74108;48.636;9.492;2024-01-16T13:51:43;4.35;;;2.42;;
84021;SDS011;74108;48.636;9.492;2024-01-16T13:54:09;5.32;;;2.30;;
84021;SDS011;74108;48.636;9.492;2024-01-16T13:56:35;7.63;;;2.30;;
84021;SDS011;74108;48.636;9.492;2024-01-16T13:59:00;4.32;;;2.15;;
84021;SDS011;74108;48.636;9.492;2024-01-16T14:01:27;4.65;;;1.98;;
84021;SDS011;74108;48.636;9.492;2024-01-16T14:03:53;4.40;;;2.08;;
84021;SDS011;74108;48.636;9.492;2024-01-16T14:06:19;4.68;;;2.30;;
84021;SDS011;74108;48.636;9.492;2024-01-16T14:08:45;5.40;;;2.30;;
84021;SDS011;74108;48.636;9.492;2024-01-16T14:11:12;4.25;;;2.15;;
84021;SDS011;74108;48.636;9.492;2024-01-16T14:13:38;4.65;;;2.30;;
84021;SDS011;74108;48.636;9.492;2024-01-16T14:16:04;8.02;;;2.05;;
84021;SDS011;74108;48.636;9.492;2024-01-16T14:18:29;3.85;;;2.05;;
84021;SDS011;74108;48.636;9.492;2024-01-16T14:20:58;3.47;;;2.03;;
84021;SDS011;74108;48.636;9.492;2024-01-16T14:23:23;3.33;;;2.08;;
84021;SDS011;74108;48.636;9.492;2024-01-16T14:25:48;3.58;;;2.15;;
84021;SDS011;74108;48.636;9.492;2024-01-16T14:30:46;2.88;;;1.88;;
84021;SDS011;74108;48.636;9.492;2024-01-16T14:33:12;5.68;;;2.10;;
84021;SDS011;74108;48.636;9.492;2024-01-16T14:35:38;7.28;;;2.58;;
84021;SDS011;74108;48.636;9.492;2024-01-16T14:38:03;3.88;;;1.95;;
84021;SDS011;74108;48.636;9.492;2024-01-16T14:40:28;3.97;;;2.10;;
84021;SDS011;74108;48.636;9.492;2024-01-16T14:42:55;3.25;;;1.90;;
84021;SDS011;74108;48.636;9.492;2024-01-16T14:45:23;3.65;;;2.00;;
84021;SDS011;74108;48.636;9.492;2024-01-16T14:47:52;3.72;;;2.00;;
84021;SDS011;74108;48.636;9.492;2024-01-16T14:50:19;2.97;;;1.85;;
84021;SDS011;74108;48.636;9.492;2024-01-16T14:52:47;4.65;;;2.05;;
84021;SDS011;74108;48.636;9.492;2024-01-16T14:55:22;3.75;;;2.13;;
84021;SDS011;74108;48.636;9.492;2024-01-16T14:57:51;5.93;;;2.13;;
84021;SDS011;74108;48.636;9.492;2024-01-16T15:00:18;3.88;;;2.00;;
84021;SDS011;74108;48.636;9.492;2024-01-16T15:02:52;6.82;;;2.20;;
84021;SDS011;74108;48.636;9.492;2024-01-16T15:05:19;3.75;;;2.05;;
84021;SDS011;74108;48.636;9.492;2024-01-16T15:07:47;4.03;;;2.00;;